Time;durP1;ratioP1;P1;durP2;ratioP2;P2;SDS_P1;SDS_P2;PMS_P1;PMS_P2;Temp;Humidity;BMP_temperature;BMP_pressure;BME280_temperature;BME280_humidity;BME280_pressure;Samples;Min_cycle;Max_cycle;Signal;HPM_P1;HPM_P2
2022/07/22 00:01:27;;;;;;;9.57;2.85;;;;;;;15.99;100.00;102350.47;7384848;19;20007;-75
2022/07/22 00:03:58;;;;;;;;;;;;;;;16.02;100.00;102358.47;7384765;19;20010;-76
2022/07/22 00:06:28;;;;;;;9.10;3.50;;;;;;;16.02;100.00;102353.19;7387677;19;19918;-76
2022/07/22 00:08:59;;;;;;;18.73;3.30;;;;;;;16.05;100.00;102352.34;7375735;19;20021;-76
2022/07/22 00:11:30;;;;;;;8.45;3.17;;;;;;;16.01;100.00;102352.28;7384143;19;20014;-76
2022/07/22 00:14:06;;;;;;;10.60;3.28;;;;;;;16.02;100.00;102351.41;7383832;19;20007;-75
2022/07/22 00:16:44;;;;;;;11.98;3.10;;;;;;;16.03;100.00;102352.31;7386302;19;20384;-76
2022/07/22 00:19:14;;;;;;;8.20;2.90;;;;;;;16.02;100.00;102353.19;7384733;19;20024;-77
2022/07/22 00:21:45;;;;;;;14.57;3.35;;;;;;;16.02;100.00;102348.78;7386960;19;20493;-76
2022/07/22 00:24:16;;;;;;;8.85;2.92;;;;;;;16.05;100.00;102341.75;7385996;19;20028;-76
2022/07/22 00:26:47;;;;;;;11.05;2.78;;;;;;;16.03;100.00;102345.25;7385875;19;20190;-75
2022/07/22 00:29:17;;;;;;;21.33;4.00;;;;;;;16.02;100.00;102343.47;7385985;19;20043;-76
2022/07/22 00:31:50;;;;;;;10.23;3.15;;;;;;;16.02;100.00;102343.47;7383266;19;20086;-75
2022/07/22 00:34:20;;;;;;;10.77;3.45;;;;;;;16.01;100.00;102336.41;7383018;19;20043;-76
2022/07/22 00:36:51;;;;;;;13.00;3.22;;;;;;;16.02;100.00;102337.31;7383559;19;20504;-76
2022/07/22 00:39:24;;;;;;;7.30;2.83;;;;;;;16.01;100.00;102336.41;7383615;19;20363;-75
2022/07/22 00:41:54;;;;;;;8.60;3.47;;;;;;;15.98;100.00;102331.06;7383369;19;20014;-76
2022/07/22 00:44:24;;;;;;;11.93;3.58;;;;;;;15.98;100.00;102335.47;7385081;19;20019;-77
2022/07/22 00:46:58;;;;;;;10.90;3.22;;;;;;;15.98;100.00;102323.13;7382582;19;20002;-77
2022/07/22 00:49:28;;;;;;;10.73;3.70;;;;;;;15.96;100.00;102327.50;7385097;19;20078;-76
2022/07/22 00:51:58;;;;;;;9.82;3.45;;;;;;;15.96;100.00;102332.81;7384860;19;20340;-77
2022/07/22 00:54:28;;;;;;;11.60;3.72;;;;;;;15.93;100.00;102331.88;7381561;19;20017;-76
2022/07/22 00:56:58;;;;;;;9.52;3.03;;;;;;;15.91;100.00;102330.97;7383572;19;20014;-75
2022/07/22 00:59:30;;;;;;;10.60;3.08;;;;;;;15.92;100.00;102325.69;7384155;19;20017;-76
2022/07/22 01:02:09;;;;;;;7.10;2.65;;;;;;;15.90;100.00;102319.47;7384890;19;20673;-76
2022/07/22 01:04:39;;;;;;;10.43;2.88;;;;;;;15.94;100.00;102323.06;7385550;19;20101;-76
2022/07/22 01:07:12;;;;;;;10.73;3.65;;;;;;;15.91;100.00;102318.63;7383206;19;20010;-76
2022/07/22 01:09:45;;;;;;;9.48;3.05;;;;;;;15.92;100.00;102322.16;7383967;19;20018;-76
2022/07/22 01:12:16;;;;;;;8.48;2.75;;;;;;;15.89;100.00;102317.72;7384589;19;20010;-77
2022/07/22 01:14:47;;;;;;;7.28;3.13;;;;;;;15.90;100.00;102322.13;7386909;19;20025;-77
2022/07/22 01:17:22;;;;;;;9.77;3.47;;;;;;;15.89;100.00;102319.47;7386097;19;20018;-76
2022/07/22 01:20:09;;;;;;;11.07;2.83;;;;;;;15.90;100.00;102327.41;7386391;19;20007;-75
2022/07/22 01:22:39;;;;;;;9.95;3.70;;;;;;;15.90;100.00;102321.25;7382273;19;20086;-74
2022/07/22 01:25:10;;;;;;;9.95;2.70;;;;;;;15.87;100.00;102318.53;7384651;19;20006;-75
2022/07/22 01:27:41;;;;;;;10.15;3.08;;;;;;;15.85;100.00;102317.63;7384173;19;20010;-76
2022/07/22 01:30:12;;;;;;;6.88;2.85;;;;;;;15.88;100.00;102312.38;7383517;19;20092;-76
2022/07/22 01:32:46;;;;;;;7.93;2.85;;;;;;;15.89;100.00;102314.16;7385209;19;20181;-76
2022/07/22 01:35:21;;;;;;;6.20;3.17;;;;;;;15.89;100.00;102316.81;7383965;19;20011;-77
2022/07/22 01:37:52;;;;;;;8.20;2.65;;;;;;;15.91;100.00;102313.31;7387096;19;20014;-77
2022/07/22 01:40:24;;;;;;;10.15;3.20;;;;;;;15.86;100.00;102311.47;7382307;19;20090;-76
2022/07/22 01:42:54;;;;;;;11.82;2.90;;;;;;;15.86;100.00;102315.00;7384776;19;20056;-76
2022/07/22 01:45:24;;;;;;;14.27;4.05;;;;;;;15.88;100.00;102318.56;7384546;19;20014;-76
2022/07/22 01:47:54;;;;;;;11.85;3.15;;;;;;;15.88;100.00;102317.69;7384670;19;20018;-75
2022/07/22 01:50:27;;;;;;;7.90;2.97;;;;;;;15.88;100.00;102318.56;7384701;19;20031;-75
2022/07/22 01:52:58;;;;;;;9.27;2.67;;;;;;;15.88;100.00;102312.38;7378504;19;20711;-76
2022/07/22 01:55:29;;;;;;;6.15;2.65;;;;;;;15.85;100.00;102307.94;7383685;19;20007;-75
2022/07/22 01:58:00;;;;;;;7.88;2.47;;;;;;;15.85;100.00;102307.06;7381551;19;20045;-75
2022/07/22 02:00:31;;;;;;;6.88;2.80;;;;;;;15.82;100.00;102307.00;7382214;19;20010;-75
2022/07/22 02:03:05;;;;;;;5.53;2.60;;;;;;;15.81;100.00;102302.59;7383117;19;20010;-77
2022/07/22 02:05:37;;;;;;;6.65;2.60;;;;;;;15.84;100.00;102310.56;7381975;19;20110;-76
2022/07/22 02:08:13;;;;;;;7.25;2.40;;;;;;;15.85;100.00;102307.94;7384560;19;20519;-76
2022/07/22 02:10:44;;;;;;;7.20;2.55;;;;;;;15.83;100.00;102306.16;7383656;19;20014;-74
2022/07/22 02:13:14;;;;;;;7.03;2.83;;;;;;;15.84;100.00;102305.28;7385750;19;20478;-75
2022/07/22 02:15:44;;;;;;;5.22;2.22;;;;;;;15.85;100.00;102297.38;7385013;19;20014;-75
2022/07/22 02:18:16;;;;;;;7.25;2.30;;;;;;;15.84;100.00;102298.22;7390086;19;20013;-75
2022/07/22 02:20:50;;;;;;;5.90;2.58;;;;;;;15.87;100.00;102300.91;7388646;19;20022;-77
2022/07/22 02:23:20;;;;;;;7.03;2.95;;;;;;;15.83;100.00;102303.50;7404618;19;20532;-77
2022/07/22 02:25:51;;;;;;;7.47;2.70;;;;;;;15.83;100.00;102299.09;7406989;19;20010;-75
2022/07/22 02:28:22;;;;;;;9.85;2.67;;;;;;;15.84;100.00;102302.63;7410304;19;20039;-77
2022/07/22 02:30:54;;;;;;;6.13;2.40;;;;;;;15.85;100.00;102300.00;7405532;19;20039;-75
2022/07/22 02:33:24;;;;;;;6.35;2.58;;;;;;;15.80;100.00;102303.44;7402843;19;20036;-76
2022/07/22 02:36:00;;;;;;;6.55;2.50;;;;;;;15.78;100.00;102305.19;7409129;19;20035;-76
2022/07/22 02:38:30;;;;;;;6.20;2.22;;;;;;;15.77;100.00;102288.41;7410338;19;20047;-75
2022/07/22 02:41:00;;;;;;;7.95;2.63;;;;;;;15.76;100.00;102288.41;7407889;19;20403;-77
2022/07/22 02:43:31;;;;;;;5.38;2.22;;;;;;;15.76;100.00;102291.94;7404675;19;20018;-76
2022/07/22 02:46:04;;;;;;;7.10;2.60;;;;;;;15.78;100.00;102292.84;7403667;19;20035;-75
2022/07/22 02:48:37;;;;;;;6.72;2.42;;;;;;;15.78;100.00;102284.91;7401810;19;20010;-77
2022/07/22 02:51:13;;;;;;;6.85;2.38;;;;;;;15.80;100.00;102288.47;7404826;19;20002;-76
2022/07/22 02:53:44;;;;;;;8.25;2.40;;;;;;;15.82;100.00;102285.84;7402469;19;20026;-76
2022/07/22 02:56:14;;;;;;;8.23;3.03;;;;;;;15.79;100.00;102281.41;7404828;19;20022;-77
2022/07/22 02:58:47;;;;;;;7.63;2.40;;;;;;;15.79;100.00;102281.41;7403915;19;20061;-77
2022/07/22 03:01:17;;;;;;;7.68;2.53;;;;;;;15.76;100.00;102275.19;7404726;19;20002;-75
2022/07/22 03:03:48;;;;;;;5.55;2.35;;;;;;;15.77;100.00;102279.59;7398402;19;20010;-78
2022/07/22 03:06:20;;;;;;;4.25;2.00;;;;;;;15.75;100.00;102279.56;7403772;19;20015;-75
2022/07/22 03:08:51;;;;;;;7.40;2.60;;;;;;;15.74;100.00;102274.25;7402468;19;20014;-78
2022/07/22 03:11:24;;;;;;;8.32;2.70;;;;;;;15.75;100.00;102271.63;7398591;19;20356;-75
2022/07/22 03:13:56;;;;;;;9.40;2.80;;;;;;;15.77;100.00;102283.13;7398430;19;20634;-76
2022/07/22 03:16:27;;;;;;;7.07;2.97;;;;;;;15.77;100.00;102272.56;7399175;19;20018;-76
2022/07/22 03:18:58;;;;;;;7.43;3.35;;;;;;;15.77;100.00;102277.84;7397515;19;20074;-78
2022/07/22 03:21:31;;;;;;;7.07;2.50;;;;;;;15.79;100.00;102286.69;7396266;19;20006;-77
2022/07/22 03:24:06;;;;;;;7.45;2.33;;;;;;;15.78;100.00;102284.91;7391672;19;20007;-76
2022/07/22 03:26:38;;;;;;;6.38;2.17;;;;;;;15.75;100.00;102287.50;7395273;19;20039;-76
2022/07/22 03:29:11;;;;;;;10.88;2.85;;;;;;;15.73;100.00;102283.94;7394233;19;20504;-76
2022/07/22 03:31:41;;;;;;;8.35;2.30;;;;;;;15.74;100.00;102283.09;7393519;19;20010;-77
2022/07/22 03:34:11;;;;;;;9.85;2.38;;;;;;;15.73;100.00;102289.25;7385464;19;20062;-75
2022/07/22 03:36:45;;;;;;;7.25;2.80;;;;;;;15.75;100.00;102290.16;7385092;19;20010;-76
2022/07/22 03:39:15;;;;;;;6.63;2.42;;;;;;;15.75;100.00;102298.09;7388423;19;20014;-75
2022/07/22 03:41:45;;;;;;;7.95;2.50;;;;;;;15.75;100.00;102289.25;7384827;19;20006;-75
2022/07/22 03:44:16;;;;;;;7.47;2.50;;;;;;;15.74;100.00;102293.66;7386359;19;20010;-75
2022/07/22 03:46:46;;;;;;;8.55;2.30;;;;;;;15.72;100.00;102286.56;7383435;19;20479;-75
2022/07/22 03:49:16;;;;;;;8.20;2.78;;;;;;;15.71;100.00;102285.69;7386501;19;20014;-76
2022/07/22 03:51:50;;;;;;;9.82;3.55;;;;;;;15.72;100.00;102284.81;7384142;19;20424;-76
2022/07/22 03:54:22;;;;;;;6.30;2.45;;;;;;;15.72;100.00;102294.50;7379628;19;20492;-75
2022/07/22 03:56:52;;;;;;;8.63;3.03;;;;;;;15.72;100.00;102295.41;7384618;19;20542;-76
2022/07/22 03:59:22;;;;;;;10.02;3.08;;;;;;;15.71;100.00;102290.97;7385223;19;20521;-75
2022/07/22 04:01:53;;;;;;;6.53;2.50;;;;;;;15.74;100.00;102296.31;7384553;19;20325;-78
2022/07/22 04:04:23;;;;;;;5.43;2.58;;;;;;;15.78;100.00;102295.50;7383765;19;20050;-77
2022/07/22 04:06:56;;;;;;;7.07;2.60;;;;;;;15.81;100.00;102295.53;7383414;19;20018;-76
2022/07/22 04:09:28;;;;;;;11.20;2.78;;;;;;;15.85;100.00;102297.38;7384607;19;20057;-76
2022/07/22 04:12:04;;;;;;;7.07;2.80;;;;;;;15.85;100.00;102297.38;7382402;19;20458;-76
2022/07/22 04:14:37;;;;;;;6.10;2.20;;;;;;;15.86;100.00;102293.84;7383812;19;20028;-75
2022/07/22 04:17:12;;;;;;;6.38;2.47;;;;;;;15.88;100.00;102300.06;7385347;19;20471;-77
2022/07/22 04:19:45;;;;;;;5.47;2.00;;;;;;;15.85;100.00;102292.06;7383782;19;20027;-75
2022/07/22 04:22:19;;;;;;;7.07;2.30;;;;;;;15.87;100.00;102290.34;7384860;19;20094;-76
2022/07/22 04:24:48;;;;;;;;;;;;;;;15.90;100.00;102287.72;7384881;19;20014;-75
2022/07/22 04:27:19;;;;;;;4.50;2.22;;;;;;;15.89;100.00;102293.91;7384260;19;19915;-77
2022/07/22 04:29:49;;;;;;;4.10;2.10;;;;;;;15.88;100.00;102286.81;7384948;19;20331;-75
2022/07/22 04:32:23;;;;;;;7.00;2.83;;;;;;;15.94;100.00;102292.22;7383928;19;20023;-76
2022/07/22 04:34:53;;;;;;;7.82;2.58;;;;;;;15.94;100.00;102286.91;7386184;19;20014;-76
2022/07/22 04:37:28;;;;;;;9.05;3.03;;;;;;;15.93;100.00;102284.25;7382640;19;20043;-75
2022/07/22 04:39:58;;;;;;;4.90;2.60;;;;;;;15.94;100.00;102283.38;7386044;19;20018;-75
2022/07/22 04:42:31;;;;;;;9.65;2.45;;;;;;;15.98;100.00;102275.50;7384963;19;20088;-76
2022/07/22 04:45:05;;;;;;;6.05;2.13;;;;;;;16.06;100.00;102282.66;7384707;19;20011;-75
2022/07/22 04:47:39;;;;;;;5.07;2.30;;;;;;;16.08;100.00;102278.28;7385841;19;20332;-76
2022/07/22 04:50:14;;;;;;;5.10;2.30;;;;;;;16.08;100.00;102272.97;7386617;19;20010;-74
2022/07/22 04:52:49;;;;;;;6.32;2.20;;;;;;;16.09;100.00;102291.53;7381869;19;20025;-76
2022/07/22 04:55:20;;;;;;;6.35;2.28;;;;;;;16.15;100.00;102290.72;7383820;19;20017;-75
2022/07/22 04:57:50;;;;;;;6.05;2.20;;;;;;;16.17;100.00;102279.28;7383876;19;20022;-75
2022/07/22 05:00:20;;;;;;;5.13;2.20;;;;;;;16.17;100.00;102278.41;7385636;19;20015;-75
2022/07/22 05:02:51;;;;;;;8.25;2.78;;;;;;;16.17;100.00;102276.63;7385438;19;20010;-75
2022/07/22 05:05:22;;;;;;;6.00;2.20;;;;;;;16.22;100.00;102287.28;7384169;19;20014;-74
2022/07/22 05:07:55;;;;;;;5.70;2.50;;;;;;;16.31;100.00;102282.13;7383691;19;20415;-75
2022/07/22 05:10:25;;;;;;;5.88;2.13;;;;;;;16.36;100.00;102285.72;7384086;19;20006;-73
2022/07/22 05:13:08;;;;;;;5.72;2.30;;;;;;;16.44;100.00;102283.16;7386168;19;20043;-74
2022/07/22 05:15:38;;;;;;;6.22;2.08;;;;;;;16.49;100.00;102274.41;7384736;19;20489;-75
2022/07/22 05:18:08;;;;;;;6.15;2.22;;;;;;;16.54;100.00;102285.03;7387196;19;20007;-75
2022/07/22 05:20:43;;;;;;;8.73;2.40;;;;;;;16.55;100.00;102271.81;7386308;19;20006;-75
2022/07/22 05:23:16;;;;;;;5.28;1.95;;;;;;;16.45;100.00;102280.53;7384601;19;20014;-75
2022/07/22 05:25:49;;;;;;;4.13;2.03;;;;;;;16.55;100.00;102265.63;7384116;19;20443;-76
2022/07/22 05:28:19;;;;;;;4.63;2.05;;;;;;;16.57;100.00;102267.44;7386637;19;20013;-75
2022/07/22 05:30:49;;;;;;;4.55;2.20;;;;;;;16.61;100.00;102277.19;7383472;19;20019;-75
2022/07/22 05:33:19;;;;;;;4.10;1.85;;;;;;;16.59;100.00;102273.63;7392160;19;20010;-75
2022/07/22 05:35:50;;;;;;;6.00;1.90;;;;;;;16.68;100.00;102278.16;7390981;19;20002;-75
2022/07/22 05:38:23;;;;;;;2.72;1.73;;;;;;;16.78;100.00;102287.09;7389280;19;20745;-75
2022/07/22 05:40:53;;;;;;;4.88;2.17;;;;;;;16.76;100.00;102281.75;7387388;19;20019;-74
2022/07/22 05:43:23;;;;;;;7.00;2.60;;;;;;;16.82;100.00;102273.00;7385806;19;20011;-74
2022/07/22 05:45:53;;;;;;;5.80;2.47;;;;;;;16.86;100.00;102277.44;7384450;19;20077;-75
2022/07/22 05:48:24;;;;;;;7.05;2.17;;;;;;;16.80;100.00;102272.97;7383876;19;20043;-76
2022/07/22 05:50:57;;;;;;;5.60;2.08;;;;;;;16.86;100.00;102274.81;7385727;19;20007;-75
2022/07/22 05:53:31;;;;;;;6.97;2.05;;;;;;;16.85;100.00;102270.38;7380361;19;20007;-74
2022/07/22 05:56:05;;;;;;;5.15;1.98;;;;;;;17.13;100.00;102280.38;7381424;19;20010;-76
2022/07/22 05:58:43;;;;;;;4.65;2.22;;;;;;;17.30;100.00;102285.81;7385326;19;20009;-74
2022/07/22 06:01:14;;;;;;;7.03;3.08;;;;;;;17.40;100.00;102281.50;7383568;19;20424;-73
2022/07/22 06:03:44;;;;;;;5.28;2.35;;;;;;;17.41;100.00;102277.97;7385902;19;20022;-76
2022/07/22 06:06:15;;;;;;;5.07;1.83;;;;;;;17.38;100.00;102277.94;7383135;19;20598;-75
2022/07/22 06:08:48;;;;;;;5.95;2.00;;;;;;;17.30;99.59;102278.75;7386473;19;20052;-75
2022/07/22 06:11:23;;;;;;;5.15;2.45;;;;;;;17.22;99.13;102276.91;7386097;19;20027;-75
2022/07/22 06:13:53;;;;;;;6.03;1.80;;;;;;;17.32;99.99;102276.13;7385210;19;20332;-74
2022/07/22 06:16:23;;;;;;;8.25;2.17;;;;;;;17.27;99.17;102278.72;7383885;19;20477;-75
2022/07/22 06:18:53;;;;;;;6.32;2.35;;;;;;;17.20;98.86;102276.00;7383534;19;20492;-76
2022/07/22 06:21:24;;;;;;;6.40;2.92;;;;;;;17.21;99.34;102261.88;7383453;19;20017;-75
2022/07/22 06:23:57;;;;;;;4.82;1.98;;;;;;;17.40;99.88;102260.28;7384627;19;20235;-74
2022/07/22 06:26:27;;;;;;;6.13;2.50;;;;;;;17.45;99.68;102266.50;7384274;19;20015;-74
2022/07/22 06:28:57;;;;;;;4.20;1.98;;;;;;;17.57;99.39;102269.25;7384781;19;20048;-75
2022/07/22 06:31:27;;;;;;;7.85;2.25;;;;;;;17.67;99.90;102273.78;7385067;19;20020;-76
2022/07/22 06:33:58;;;;;;;4.57;2.25;;;;;;;17.78;99.02;102274.69;7383024;19;20377;-74
2022/07/22 06:36:28;;;;;;;6.65;2.60;;;;;;;17.79;97.67;102278.25;7386844;19;20048;-74
2022/07/22 06:39:01;;;;;;;9.40;2.72;;;;;;;17.80;98.42;102277.34;7386026;19;20097;-74
2022/07/22 06:41:38;;;;;;;4.97;2.05;;;;;;;18.01;97.14;102284.56;7387771;19;20015;-74
2022/07/22 06:44:12;;;;;;;5.22;2.58;;;;;;;17.93;95.99;102274.78;7394075;19;20017;-75
2022/07/22 06:46:47;;;;;;;5.57;2.35;;;;;;;17.92;97.22;102278.31;7392900;19;20248;-75
2022/07/22 06:49:18;;;;;;;4.68;1.98;;;;;;;17.81;96.49;102274.72;7387808;19;20714;-75
2022/07/22 06:51:48;;;;;;;6.03;2.38;;;;;;;17.94;96.45;102278.34;7385500;19;20021;-75
2022/07/22 06:54:23;;;;;;;7.20;2.00;;;;;;;18.15;97.95;102278.44;7383117;19;20082;-74
2022/07/22 06:56:52;;;;;;;4.85;2.05;;;;;;;18.28;98.26;102279.41;7377425;19;20015;-76
2022/07/22 06:59:23;;;;;;;6.47;2.28;;;;;;;18.32;97.27;102275.88;7385009;19;20260;-76
2022/07/22 07:01:53;;;;;;;6.32;1.83;;;;;;;18.29;95.76;102278.50;7380003;19;20002;-76
2022/07/22 07:04:27;;;;;;;6.43;2.03;;;;;;;17.93;94.63;102285.41;7378216;19;20105;-77
2022/07/22 07:06:57;;;;;;;6.40;2.45;;;;;;;17.61;96.86;102276.34;7380635;19;20108;-76
2022/07/22 07:09:35;;;;;;;5.18;2.00;;;;;;;17.67;96.56;102281.72;7388808;19;20007;-77
2022/07/22 07:12:12;;;;;;;5.63;2.22;;;;;;;17.84;97.61;102282.69;7387457;19;20346;-75
2022/07/22 07:14:45;;;;;;;5.90;2.25;;;;;;;18.03;97.42;102280.16;7386748;19;20623;-76
2022/07/22 07:17:38;;;;;;;6.28;2.08;;;;;;;18.02;96.24;102281.91;7384963;19;20459;-76
2022/07/22 07:20:12;;;;;;;6.60;2.08;;;;;;;18.13;94.98;102279.31;7391927;19;20060;-75
2022/07/22 07:22:45;;;;;;;5.50;2.25;;;;;;;18.18;95.03;102269.59;7387797;19;20018;-76
2022/07/22 07:25:19;;;;;;;7.20;2.60;;;;;;;18.27;95.16;102274.97;7390218;19;20014;-76
2022/07/22 07:27:54;;;;;;;8.70;2.55;;;;;;;18.31;95.09;102276.75;7385044;19;20010;-75
2022/07/22 07:30:25;;;;;;;10.10;2.50;;;;;;;18.40;95.82;102276.78;7385724;19;20015;-77
2022/07/22 07:32:56;;;;;;;7.60;3.07;;;;;;;18.47;95.51;102275.94;7386228;19;20025;-76
2022/07/22 07:35:27;;;;;;;6.90;2.70;;;;;;;18.39;95.63;102277.66;7385986;19;20021;-74
2022/07/22 07:38:00;;;;;;;7.25;2.63;;;;;;;18.45;94.31;102280.34;7387056;19;20007;-75
2022/07/22 07:40:42;;;;;;;6.03;2.42;;;;;;;18.32;94.27;102281.19;7386821;19;20020;-76
2022/07/22 07:43:15;;;;;;;5.80;2.40;;;;;;;18.33;93.54;102276.75;7383661;19;20006;-74
2022/07/22 07:45:45;;;;;;;4.05;2.47;;;;;;;18.35;94.69;102277.66;7385410;19;20018;-74
2022/07/22 07:48:19;;;;;;;5.28;1.95;;;;;;;18.43;94.33;102282.13;7382355;19;20017;-74
2022/07/22 07:50:49;;;;;;;;;;;;;;;18.49;93.87;102276.81;7387145;19;20731;-74
2022/07/22 07:53:22;;;;;;;4.93;2.42;;;;;;;18.58;92.36;102274.19;7378190;19;19914;-75
2022/07/22 07:55:58;;;;;;;7.47;2.30;;;;;;;18.59;93.20;102267.09;7386323;19;20031;-75
2022/07/22 07:58:45;;;;;;;7.90;2.40;;;;;;;18.48;92.14;102268.84;7380148;19;20384;-74
2022/07/22 08:01:36;;;;;;;6.10;2.70;;;;;;;18.56;93.17;102268.00;7386203;19;20482;-75
2022/07/22 08:04:27;;;;;;;7.70;2.55;;;;;;;18.68;91.22;102266.28;7383962;19;20002;-74
2022/07/22 08:07:10;;;;;;;4.25;2.15;;;;;;;18.86;90.21;102271.59;7382736;19;20575;-75
2022/07/22 08:09:46;;;;;;;7.90;2.95;;;;;;;18.92;89.35;102277.81;7383588;19;20074;-75
2022/07/22 08:12:19;;;;;;;5.13;2.33;;;;;;;19.09;88.90;102266.31;7386983;19;20011;-76
2022/07/22 08:14:51;;;;;;;;;;;;;;;19.11;88.71;102262.78;7385634;19;20297;-74
2022/07/22 08:17:22;;;;;;;5.78;2.40;;;;;;;19.30;88.24;102266.34;7385383;19;20296;-75
2022/07/22 08:19:55;;;;;;;8.43;2.83;;;;;;;19.45;87.73;102261.00;7384153;19;20135;-74
2022/07/22 08:22:25;;;;;;;7.43;2.60;;;;;;;19.35;84.90;102259.25;7385617;19;20011;-74
2022/07/22 08:24:58;;;;;;;5.72;2.38;;;;;;;19.52;85.81;102253.94;7386773;19;20303;-75
2022/07/22 08:27:32;;;;;;;6.85;3.08;;;;;;;19.55;84.98;102259.25;7386190;19;20429;-76
2022/07/22 08:30:11;;;;;;;6.88;2.47;;;;;;;19.43;81.14;102259.22;7389172;19;20032;-76
2022/07/22 08:32:41;;;;;;;10.85;2.97;;;;;;;19.20;81.84;102256.56;7386577;19;20082;-75
2022/07/22 08:35:12;;;;;;;7.57;2.80;;;;;;;19.45;83.01;102262.78;7389329;19;20021;-75
2022/07/22 08:37:47;;;;;;;11.70;2.92;;;;;;;19.50;80.66;102259.22;7385379;19;20459;-76
2022/07/22 08:40:19;;;;;;;6.57;3.03;;;;;;;19.78;81.28;102246.75;7390456;19;20006;-76
2022/07/22 08:42:53;;;;;;;5.97;2.80;;;;;;;19.91;80.30;102252.94;7388158;19;20378;-76
2022/07/22 08:45:23;;;;;;;;;;;;;;;20.22;79.22;102253.72;7394573;19;20285;-76
2022/07/22 08:47:56;;;;;;;12.35;2.70;;;;;;;20.32;77.62;102235.91;7388886;19;19918;-77
2022/07/22 08:50:27;;;;;;;;;;;;;;;20.37;77.63;102231.44;7394784;19;20017;-77
2022/07/22 08:52:57;;;;;;;6.55;2.20;;;;;;;20.36;74.94;102238.56;7388939;19;20056;-78
2022/07/22 08:55:27;;;;;;;6.18;2.40;;;;;;;20.51;72.26;102240.28;7390999;19;20010;-76
2022/07/22 08:58:00;;;;;;;7.57;2.58;;;;;;;20.52;73.23;102245.63;7393820;19;20018;-77
2022/07/22 09:00:35;;;;;;;9.85;2.60;;;;;;;20.97;72.63;102243.50;7391729;19;20011;-79
2022/07/22 09:03:27;;;;;;;7.13;2.60;;;;;;;21.59;71.35;102238.56;7391547;19;20007;-78
2022/07/22 09:05:58;;;;;;;7.50;2.45;;;;;;;21.90;67.91;102237.28;7389756;19;20013;-77
2022/07/22 09:08:32;;;;;;;4.80;2.25;;;;;;;21.69;67.91;102232.22;7384932;19;20050;-79
2022/07/22 09:11:21;;;;;;;9.10;2.80;;;;;;;22.38;66.82;102230.50;7395290;19;20288;-80
2022/07/22 09:13:54;;;;;;;5.80;2.67;;;;;;;22.67;63.71;102221.19;7396100;19;20038;-79
2022/07/22 09:16:47;;;;;;;4.88;2.45;;;;;;;23.09;61.90;102222.28;7396694;19;20078;-79
2022/07/22 09:19:18;;;;;;;5.28;2.03;;;;;;;22.75;60.34;102216.59;7397488;19;20010;-76
2022/07/22 09:21:50;;;;;;;4.88;2.55;;;;;;;22.34;63.21;102217.19;7399265;19;20014;-78
2022/07/22 09:24:35;;;;;;;4.55;2.38;;;;;;;22.33;64.48;102228.78;7397032;19;20015;-78
2022/07/22 09:27:17;;;;;;;5.75;2.72;;;;;;;21.91;63.27;102244.41;7394519;19;20011;-78
2022/07/22 09:29:53;;;;;;;9.18;2.97;;;;;;;21.72;62.97;102237.53;7397406;19;20118;-78
2022/07/22 09:32:23;;;;;;;8.57;2.70;;;;;;;22.09;62.21;102238.88;7396957;19;20006;-80
2022/07/22 09:35:06;;;;;;;7.10;2.67;;;;;;;21.63;63.21;102232.28;7391843;19;20023;-78
2022/07/22 09:37:43;;;;;;;9.00;2.67;;;;;;;21.72;63.38;102227.75;7396535;19;20011;-80
2022/07/22 09:40:16;;;;;;;7.03;2.65;;;;;;;21.77;62.33;102228.56;7397160;19;20011;-79
2022/07/22 09:42:50;;;;;;;9.48;2.97;;;;;;;21.57;64.47;102233.25;7388034;19;20025;-79
2022/07/22 09:45:25;;;;;;;6.68;2.47;;;;;;;21.81;62.42;102232.97;7384899;19;20003;-78
2022/07/22 09:48:07;;;;;;;6.78;2.58;;;;;;;21.74;63.10;102238.41;7389453;19;20554;-81
2022/07/22 09:50:45;;;;;;;7.93;2.90;;;;;;;22.20;61.99;102238.75;7395429;19;20018;-81
2022/07/22 09:53:17;;;;;;;6.97;2.92;;;;;;;22.08;60.79;102245.13;7382381;19;20028;-78
2022/07/22 09:55:48;;;;;;;4.78;2.35;;;;;;;22.64;59.73;102247.97;7392912;19;20033;-82
2022/07/22 09:58:19;;;;;;;6.38;2.83;;;;;;;22.94;57.72;102239.47;7395099;19;20011;-84
2022/07/22 10:00:55;;;;;;;5.03;2.50;;;;;;;23.36;59.10;102240.56;7399007;19;20022;-85
2022/07/22 10:03:30;;;;;;;7.10;2.60;;;;;;;23.22;58.20;102250.63;7397354;19;20035;-83
2022/07/22 10:06:09;;;;;;;6.45;2.80;;;;;;;22.34;58.22;102243.91;7395801;19;20011;-83
2022/07/22 10:08:45;;;;;;;5.50;2.70;;;;;;;21.77;60.37;102225.03;7391371;19;20011;-84
2022/07/22 10:11:16;;;;;;;5.53;2.22;;;;;;;22.57;59.46;102247.16;7395126;19;20011;-83
2022/07/22 10:13:49;;;;;;;5.80;2.53;;;;;;;21.87;58.24;102237.34;7394593;19;20021;-81
2022/07/22 10:16:24;;;;;;;8.02;2.53;;;;;;;22.87;57.53;102231.59;7391768;19;20395;-81
2022/07/22 10:18:57;;;;;;;5.00;2.55;;;;;;;23.58;58.50;102233.06;7385314;19;20372;-78
2022/07/22 10:21:37;;;;;;;5.57;2.80;;;;;;;22.92;56.44;102243.97;7385423;19;20038;-78
2022/07/22 10:24:17;;;;;;;5.95;2.20;;;;;;;23.44;58.66;102246.66;7385702;19;20607;-79
2022/07/22 10:26:57;;;;;;;7.60;3.00;;;;;;;22.97;57.83;102235.88;7385492;19;20031;-77
2022/07/22 10:29:31;;;;;;;5.13;2.40;;;;;;;22.69;60.58;102248.78;7388149;19;20032;-78
2022/07/22 10:32:34;;;;;;;6.35;2.70;;;;;;;22.68;61.01;102249.69;7388230;19;20018;-84
2022/07/22 10:38:19;;;;;;;7.38;2.63;;;;;;;21.70;61.79;102256.25;7390594;19;20093;-80
2022/07/22 10:40:51;;;;;;;6.28;2.92;;;;;;;21.04;65.41;102261.25;7390340;19;20022;-77
2022/07/22 10:43:24;;;;;;;5.95;2.70;;;;;;;21.23;65.48;102264.69;7397455;19;20015;-76
2022/07/22 10:46:09;;;;;;;7.22;2.83;;;;;;;21.18;66.86;102255.78;7396952;19;20006;-80
2022/07/22 10:48:51;;;;;;;;;;;;;;;21.47;64.98;102243.13;7398361;19;20018;-79
2022/07/22 10:51:23;;;;;;;7.70;2.83;;;;;;;22.73;64.81;102237.13;7397562;19;20411;-79
2022/07/22 10:53:59;;;;;;;9.35;2.60;;;;;;;23.09;62.63;102231.19;7390146;19;20022;-81
2022/07/22 10:56:38;;;;;;;10.10;3.35;;;;;;;22.03;61.64;102220.25;7387245;19;20017;-79
2022/07/22 10:59:13;;;;;;;6.20;2.88;;;;;;;23.30;60.94;102219.25;7389592;19;20069;-80
2022/07/22 11:01:50;;;;;;;6.68;2.85;;;;;;;24.14;57.83;102204.22;7391251;19;20043;-80
2022/07/22 11:04:29;;;;;;;7.45;3.70;;;;;;;24.08;55.82;102201.66;7391875;19;20487;-80
2022/07/22 11:07:00;;;;;;;9.27;2.42;;;;;;;24.53;55.91;102201.59;7394399;19;20034;-79
2022/07/22 11:09:38;;;;;;;5.85;2.67;;;;;;;24.67;54.74;102211.09;7389712;19;20039;-79
2022/07/22 11:12:15;;;;;;;8.40;3.13;;;;;;;23.71;55.71;102205.13;7390134;19;20018;-77
2022/07/22 11:14:45;;;;;;;6.32;2.47;;;;;;;24.07;55.27;102194.53;7391003;19;20031;-77
2022/07/22 11:17:16;;;;;;;7.78;2.70;;;;;;;24.67;54.21;102202.16;7388599;19;20011;-76
2022/07/22 11:19:54;;;;;;;8.38;2.90;;;;;;;24.92;54.43;102195.28;7386823;19;20014;-77
2022/07/22 11:22:24;;;;;;;8.98;2.85;;;;;;;25.37;53.29;102208.44;7387085;19;20006;-77
2022/07/22 11:24:58;;;;;;;8.68;3.00;;;;;;;25.07;53.20;102207.44;7389297;19;20025;-76
2022/07/22 11:27:30;;;;;;;8.13;2.92;;;;;;;24.96;51.85;102207.69;7387162;19;20257;-77
2022/07/22 11:30:00;;;;;;;7.78;2.83;;;;;;;24.78;53.60;102209.03;7390139;19;20015;-76
2022/07/22 11:32:32;;;;;;;8.23;3.42;;;;;;;24.97;53.22;102197.84;7388471;19;20006;-77
2022/07/22 11:35:15;;;;;;;7.40;3.50;;;;;;;25.09;52.08;102198.41;7389034;19;19998;-77
2022/07/22 11:37:45;;;;;;;7.90;3.45;;;;;;;24.98;52.50;102187.06;7388901;19;20015;-77
2022/07/22 11:40:17;;;;;;;7.85;2.80;;;;;;;25.21;51.48;102185.59;7388095;19;20015;-78
2022/07/22 11:43:09;;;;;;;8.95;3.28;;;;;;;25.15;50.94;102178.59;7393047;19;20007;-82
2022/07/22 11:46:00;;;;;;;6.70;3.20;;;;;;;24.33;51.57;102160.03;7395209;19;20017;-80
2022/07/22 11:48:46;;;;;;;6.13;3.03;;;;;;;24.47;52.32;102156.16;7391697;19;20074;-81
2022/07/22 11:51:24;;;;;;;8.32;3.15;;;;;;;23.79;53.00;102157.63;7396492;19;20010;-80
2022/07/22 11:53:54;;;;;;;9.45;3.38;;;;;;;24.13;53.52;102151.53;7385566;19;20043;-80